Terminal Aerodrome Forecast
Issued by NWS

Home | Current Version | Previous Version | Graphics & Text | Print | Product List | Glossary On
Versions: 1 2 3 4 5 6 7 8 9 10 11 12 13 14 15 16 17
000
FTUS43 KABR 022300
TAFPIR
TAF
KPIR 022323Z 0300/0324 18012G19KT P6SM VCTS SCT060CB BKN150
     FM030300 VRB05KT P6SM SCT100
     FM031400 36015G24KT P6SM BKN250=

USA.gov is the U.S. government's official web portal to all federal, state and local government web resources and services.